Terminal Aerodrome Forecast
Issued by NWS Atlanta, GA

Home | Current Version | Previous Version | Text Only | Print | Product List | Glossary On
Versions: 1 2 3 4 5 6 7 8 9 10 11 12 13 14 15 16 17
000
FTUS42 KFFC 200538
TAFMCN
TAF
KMCN 200538Z 2006/2106 05003KT P6SM -SHRA OVC080
     FM200900 00000KT 6SM -RA BR OVC040
     FM201300 06004KT 5SM -RA BR OVC025
     FM201800 07005KT P6SM VCSH OVC028
     FM202100 08005KT P6SM BKN035
     FM210000 30004KT P6SM SCT050=

USA.gov is the U.S. government's official web portal to all federal, state and local government web resources and services.